»·PEaware :: DAL1194 KSLC-KPDX

DAL1194 :: KSLC-KPDX

FLIGHT INFORMATION

Flight Status: Arrived
Operator:
Delta Air Lines
More flights by this operator :: More flights under this callsign
Pilot: Joe P. (13940)
Aircraft: BOEING 737-700
(B737)
More flights by this aircraft type
Origin: KSLC Salt Lake City Intl
United States
Destination: KPDX Portland Intl
United States
More flights between these airports :: More routes between these airports
Route: +CGULL1 TWF J15 BOI J163 BKE JOTBA HHOOD4
File this flight plan on PilotEdge
Remarks: KSEA -PBN / A1B1C1D1L1O1S1 NAV / RNVD1E2A1 DOF / 181027 REG / N389DA EET / KZSE0105 RVR / 200 PER / C
Altitude:
(Current/Filed)
380ft
Speed:
(Current/Filed)
451kts
Departed: 27-Oct-18 11:16 AM
Arrived: 27-Oct-18 12:57 PM
Distance/Time
Traveled:
546nm/1:41
Distance/Time
To Go:
Arrived

Flight Plot

Page will automatically refresh every two minutes.

Flight plan parsing failed; only flown route is shown


Map Options




Map Legend


Flown Route
Filed Route
Departure Airport
Arrival Airport
Navaid (VOR, NDB)
Fix

Horizontal Profiles

Position Reports

Time Latitude Longitude Heading Altitude Ground
Speed
27-Oct-18 10:05 40.788533 -111.980747 280 4235ft 0kts
27-Oct-18 10:06 40.788533 -111.980747 280 4235ft 0kts
27-Oct-18 10:07 40.788533 -111.980747 280 4235ft 0kts
27-Oct-18 10:08 40.788533 -111.980747 280 4235ft 0kts
27-Oct-18 10:09 40.788533 -111.980747 280 4235ft 0kts
27-Oct-18 10:10 40.788533 -111.980747 280 4235ft 0kts
27-Oct-18 10:11 40.788533 -111.980747 280 4235ft 0kts
27-Oct-18 10:12 40.788533 -111.980747 280 4235ft 0kts
27-Oct-18 10:13 40.788533 -111.980747 280 4235ft 0kts
27-Oct-18 10:14 40.788533 -111.980747 280 4235ft 0kts
27-Oct-18 10:15 40.788533 -111.980747 280 4235ft 0kts
27-Oct-18 10:16 40.788533 -111.980747 280 4235ft 0kts
27-Oct-18 10:17 40.788533 -111.980747 280 4235ft 0kts
27-Oct-18 10:18 40.788533 -111.980747 280 4235ft 0kts
27-Oct-18 10:19 40.788533 -111.980747 280 4235ft 0kts
27-Oct-18 10:20 40.788533 -111.980747 280 4235ft 0kts
27-Oct-18 10:21 40.788533 -111.980747 280 4235ft 0kts
27-Oct-18 10:22 40.788533 -111.980747 280 4235ft 0kts
27-Oct-18 10:23 40.788533 -111.980747 280 4235ft 0kts
27-Oct-18 10:24 40.788533 -111.980747 280 4235ft 0kts
27-Oct-18 10:25 40.788533 -111.980747 280 4235ft 0kts
27-Oct-18 10:26 40.788533 -111.980747 280 4235ft 0kts
27-Oct-18 10:27 40.788533 -111.980747 280 4235ft 0kts
27-Oct-18 10:28 40.788533 -111.980747 280 4235ft 0kts
27-Oct-18 10:29 40.788533 -111.980747 280 4235ft 0kts
27-Oct-18 10:30 40.788533 -111.980747 280 4235ft 0kts
27-Oct-18 10:31 40.788533 -111.980747 280 4235ft 0kts
27-Oct-18 10:32 40.788533 -111.980747 280 4235ft 0kts
27-Oct-18 10:33 40.788533 -111.980747 280 4235ft 0kts
27-Oct-18 10:34 40.788533 -111.980747 280 4235ft 0kts
27-Oct-18 10:35 40.788533 -111.980747 280 4235ft 0kts
27-Oct-18 10:36 40.788533 -111.980747 280 4235ft 0kts
27-Oct-18 10:37 40.788533 -111.980747 280 4235ft 0kts
27-Oct-18 10:38 40.788533 -111.980747 280 4235ft 0kts
27-Oct-18 10:39 40.788533 -111.980747 280 4235ft 0kts
27-Oct-18 10:40 40.788533 -111.980747 280 4235ft 0kts
27-Oct-18 10:41 40.788533 -111.980747 280 4235ft 0kts
27-Oct-18 10:42 40.788533 -111.980747 280 4235ft 0kts
27-Oct-18 10:43 40.788533 -111.980747 280 4235ft 0kts
27-Oct-18 10:44 40.788533 -111.980747 280 4235ft 0kts
27-Oct-18 10:45 40.788533 -111.980747 280 4235ft 0kts
27-Oct-18 10:46 40.788533 -111.980747 280 4235ft 0kts
27-Oct-18 10:47 40.788533 -111.980747 280 4235ft 0kts
27-Oct-18 10:48 40.788533 -111.980747 280 4235ft 0kts
27-Oct-18 10:49 40.788533 -111.980747 280 4235ft 0kts
27-Oct-18 10:50 40.788533 -111.980747 280 4235ft 0kts
27-Oct-18 10:52 40.788533 -111.980747 280 4235ft 0kts
27-Oct-18 10:52 40.788533 -111.980747 280 4235ft 0kts
27-Oct-18 10:53 40.788533 -111.980747 280 4235ft 0kts
27-Oct-18 10:54 40.788533 -111.980747 280 4235ft 0kts
27-Oct-18 10:55 40.788533 -111.980747 280 4235ft 0kts
27-Oct-18 10:57 40.788533 -111.980747 280 4235ft 0kts
27-Oct-18 10:57 40.788533 -111.980747 280 4235ft 0kts
27-Oct-18 10:59 40.788533 -111.980747 280 4235ft 0kts
27-Oct-18 10:59 40.788533 -111.980747 280 4235ft 0kts
27-Oct-18 11:00 40.788533 -111.980747 280 4235ft 0kts
27-Oct-18 11:01 40.788533 -111.980747 280 4235ft 0kts
27-Oct-18 11:02 40.788490 -111.980453 280 4235ft 2kts
27-Oct-18 11:03 40.788368 -111.979622 280 4235ft 1kts
27-Oct-18 11:04 40.788362 -111.979584 280 4235ft 0kts
27-Oct-18 11:05 40.788362 -111.979584 280 4235ft 0kts
27-Oct-18 11:06 40.788362 -111.979584 280 4235ft 0kts
27-Oct-18 11:07 40.788362 -111.979584 280 4235ft 0kts
27-Oct-18 11:08 40.788362 -111.979584 280 4235ft 0kts
27-Oct-18 11:09 40.788363 -111.979585 280 4235ft 0kts
27-Oct-18 11:10 40.788363 -111.979587 280 4235ft 0kts
27-Oct-18 11:11 40.789667 -111.979046 82 4235ft 5kts
27-Oct-18 11:12 40.791085 -111.977300 354 4235ft 17kts
27-Oct-18 11:13 40.796948 -111.977944 355 4235ft 21kts
27-Oct-18 11:14 40.803029 -111.978701 356 4235ft 21kts
27-Oct-18 11:15 40.807380 -111.978965 43 4235ft 5kts
27-Oct-18 11:16 40.807540 -111.978478 81 4235ft 0kts
27-Oct-18 11:17 40.806853 -111.976815 170 4235ft 5kts
27-Oct-18 11:18 40.778084 -111.974894 191 5120ft 172kts
27-Oct-18 11:19 40.783955 -112.034329 307 7231ft 243kts
27-Oct-18 11:20 40.830320 -112.109154 307 9765ft 268kts
27-Oct-18 11:21 40.879685 -112.183241 313 10889ft 267kts
27-Oct-18 11:22 40.931414 -112.248557 312 14507ft 262kts
27-Oct-18 11:23 40.984730 -112.316652 311 17549ft 269kts
27-Oct-18 11:24 41.039231 -112.386553 310 20347ft 276kts
27-Oct-18 11:25 41.100705 -112.451991 321 22525ft 305kts
27-Oct-18 11:26 41.179304 -112.518595 319 23243ft 362kts
27-Oct-18 11:27 41.263351 -112.604994 315 24310ft 393kts
27-Oct-18 11:28 41.339324 -112.709126 307 26105ft 394kts
27-Oct-18 11:29 41.413398 -112.818323 306 27684ft 399kts
27-Oct-18 11:30 41.486557 -112.930513 306 29113ft 404kts
27-Oct-18 11:31 41.559407 -113.042717 305 30969ft 396kts
27-Oct-18 11:32 41.630765 -113.152942 305 32733ft 388kts
27-Oct-18 11:33 41.701121 -113.261102 304 34199ft 384kts
27-Oct-18 11:34 41.771113 -113.369508 304 34241ft 382kts
27-Oct-18 11:35 41.840508 -113.477544 304 34238ft 382kts
27-Oct-18 11:36 41.909584 -113.585478 304 34234ft 381kts
27-Oct-18 11:37 41.978666 -113.693531 304 34232ft 381kts
27-Oct-18 11:38 42.047564 -113.801873 303 34232ft 380kts
27-Oct-18 11:39 42.116033 -113.910365 303 34231ft 380kts
27-Oct-18 11:40 42.184542 -114.019030 303 34231ft 380kts
27-Oct-18 11:41 42.253106 -114.127748 303 34232ft 380kts
27-Oct-18 11:42 42.321892 -114.236424 303 34235ft 380kts
27-Oct-18 11:43 42.390385 -114.345759 303 34238ft 380kts
27-Oct-18 11:44 42.458568 -114.455172 303 34239ft 381kts
27-Oct-18 11:45 42.528034 -114.564023 304 34239ft 381kts
27-Oct-18 11:46 42.597765 -114.672163 304 34239ft 381kts
27-Oct-18 11:47 42.667762 -114.781312 303 34239ft 382kts
27-Oct-18 11:48 42.737554 -114.889997 304 34235ft 382kts
27-Oct-18 11:49 42.807307 -114.998735 303 34230ft 381kts
27-Oct-18 11:50 42.876996 -115.108084 303 34228ft 382kts
27-Oct-18 11:51 42.946383 -115.217480 303 34225ft 381kts
27-Oct-18 11:52 43.015570 -115.327011 303 34222ft 381kts
27-Oct-18 11:53 43.084821 -115.437073 303 34224ft 381kts
27-Oct-18 11:54 43.153839 -115.547186 303 34224ft 381kts
27-Oct-18 11:55 43.222682 -115.657440 303 34223ft 380kts
27-Oct-18 11:56 43.291228 -115.767642 303 34223ft 379kts
27-Oct-18 11:57 43.358384 -115.875752 303 34223ft 379kts
27-Oct-18 11:58 43.426630 -115.986076 302 34222ft 379kts
27-Oct-18 11:59 43.494806 -116.097243 302 34220ft 380kts
27-Oct-18 12:00 43.564842 -116.206714 309 34223ft 386kts
27-Oct-18 12:01 43.645386 -116.305335 309 34219ft 387kts
27-Oct-18 12:02 43.726151 -116.404417 309 34215ft 387kts
27-Oct-18 12:03 43.806506 -116.503500 309 34217ft 387kts
27-Oct-18 12:04 43.887509 -116.602845 309 34230ft 389kts
27-Oct-18 12:05 43.968097 -116.702418 309 34239ft 388kts
27-Oct-18 12:06 44.048293 -116.802023 309 34239ft 385kts
27-Oct-18 12:07 44.128310 -116.901845 308 34239ft 386kts
27-Oct-18 12:08 44.208188 -117.001890 308 34240ft 386kts
27-Oct-18 12:09 44.288241 -117.102552 308 34214ft 387kts
27-Oct-18 12:10 44.368090 -117.203341 308 34214ft 388kts
27-Oct-18 12:11 44.448037 -117.304650 308 34218ft 387kts
27-Oct-18 12:12 44.527736 -117.406035 308 34221ft 387kts
27-Oct-18 12:13 44.607431 -117.507720 308 34224ft 387kts
27-Oct-18 12:14 44.687264 -117.609735 307 34227ft 388kts
27-Oct-18 12:15 44.766815 -117.712367 307 34229ft 387kts
27-Oct-18 12:16 44.834298 -117.824529 281 34232ft 362kts
27-Oct-18 12:17 44.857651 -117.961762 278 34229ft 359kts
27-Oct-18 12:18 44.877308 -118.099415 277 34224ft 358kts
27-Oct-18 12:19 44.895667 -118.237696 276 34220ft 359kts
27-Oct-18 12:20 44.913975 -118.376193 276 34217ft 358kts
27-Oct-18 12:21 44.931866 -118.514209 276 34212ft 357kts
27-Oct-18 12:22 44.949427 -118.652782 276 34209ft 359kts
27-Oct-18 12:23 44.966693 -118.791164 275 34206ft 358kts
27-Oct-18 12:24 44.983757 -118.929595 275 34204ft 358kts
27-Oct-18 12:25 45.000652 -119.068237 275 34187ft 359kts
27-Oct-18 12:26 45.017442 -119.207505 275 34185ft 359kts
27-Oct-18 12:27 45.034011 -119.346456 275 34184ft 358kts
27-Oct-18 12:28 45.050397 -119.485351 274 34179ft 359kts
27-Oct-18 12:29 45.066659 -119.624727 274 34175ft 358kts
27-Oct-18 12:30 45.082733 -119.764022 274 34172ft 358kts
27-Oct-18 12:31 45.098609 -119.903142 274 34168ft 358kts
27-Oct-18 12:32 45.114351 -120.042540 273 34164ft 359kts
27-Oct-18 12:33 45.130140 -120.181038 274 32133ft 357kts
27-Oct-18 12:34 45.145246 -120.318926 275 29869ft 349kts
27-Oct-18 12:35 45.159729 -120.453319 275 27837ft 341kts
27-Oct-18 12:36 45.191598 -120.580273 291 25820ft 346kts
27-Oct-18 12:37 45.236996 -120.700693 292 23826ft 346kts
27-Oct-18 12:38 45.283007 -120.820326 293 21847ft 345kts
27-Oct-18 12:39 45.328589 -120.940013 293 19875ft 343kts
27-Oct-18 12:40 45.373650 -121.058746 293 17933ft 340kts
27-Oct-18 12:41 45.418570 -121.177015 294 15966ft 338kts
27-Oct-18 12:42 45.448379 -121.301740 282 14095ft 331kts
27-Oct-18 12:43 45.472408 -121.425018 283 12931ft 309kts
27-Oct-18 12:44 45.494660 -121.536838 282 11797ft 274kts
27-Oct-18 12:45 45.514173 -121.636519 282 11220ft 242kts
27-Oct-18 12:46 45.529796 -121.721766 273 10751ft 210kts
27-Oct-18 12:47 45.533118 -121.807171 269 9524ft 211kts
27-Oct-18 12:48 45.535862 -121.889913 269 8431ft 209kts
27-Oct-18 12:49 45.539141 -121.972935 271 7386ft 209kts
27-Oct-18 12:50 45.536131 -122.053592 238 6615ft 201kts
27-Oct-18 12:51 45.504024 -122.118657 231 6138ft 201kts
27-Oct-18 12:52 45.472990 -122.184673 242 5141ft 201kts
27-Oct-18 12:53 45.466341 -122.259784 288 4194ft 202kts
27-Oct-18 12:54 45.491744 -122.331567 297 3671ft 188kts
27-Oct-18 12:55 45.514695 -122.390431 298 2775ft 158kts
27-Oct-18 12:56 45.536362 -122.445860 300 1945ft 167kts
27-Oct-18 12:57 45.558934 -122.503654 301 1045ft 166kts
27-Oct-18 12:58 45.580851 -122.559871 301 154ft 159kts
27-Oct-18 12:59 45.592003 -122.589449 285 26ft 0kts
27-Oct-18 13:00 45.592004 -122.589451 285 26ft 0kts
27-Oct-18 13:02 45.592148 -122.592462 267 26ft 5kts
27-Oct-18 13:03 45.591446 -122.594017 208 26ft 6kts
27-Oct-18 13:03 45.591264 -122.594143 203 26ft 0kts
27-Oct-18 13:05 45.591264 -122.594143 203 26ft 0kts
27-Oct-18 13:06 45.591264 -122.594143 203 26ft 0kts
27-Oct-18 13:07 45.591264 -122.594143 203 26ft 0kts
27-Oct-18 13:07 45.591264 -122.594143 203 26ft 0kts

Navigation Log

Ident Type
Flight plan parsing failed, navigation log unavailable